Terminal Aerodrome Forecast
Issued by NWS

Home | Current Version | Previous Version | Text Only | Print | Product List | Glossary On
Versions: 1 2 3 4 5 6 7 8 9 10 11 12 13 14 15 16 17 18
000
FTUS45 KRIW 262300
TAFCOD
TAF
KCOD 262327Z 2700/2724 03008KT P6SM SCT050 BKN080
     FM270300 VRB04KT P6SM SCT050 BKN080
     FM270700 15006KT P6SM SCT060 SCT100
     FM271200 16007KT P6SM SCT100
     FM271800 14008KT P6SM BKN110
      AMD LTD TO CLD VIS AND WIND=

USA.gov is the U.S. government's official web portal to all federal, state and local government web resources and services.